Time;durP1;ratioP1;P1;durP2;ratioP2;P2;SDS_P1;SDS_P2;PMS_P1;PMS_P2;Temp;Humidity;BMP_temperature;BMP_pressure;BME280_temperature;BME280_humidity;BME280_pressure;Samples;Min_cycle;Max_cycle;Signal;HPM_P1;HPM_P2
2022/02/09 00:03:59;;;;;;;40.80;17.25;;;;;;;0.86;65.72;99130.00;5024590;28;20465;-73
2022/02/09 00:09:10;;;;;;;49.55;17.80;;;;;;;0.74;66.57;99137.03;5024884;28;20466;-73
2022/02/09 00:11:47;;;;;;;43.70;16.80;;;;;;;0.64;67.01;99141.97;5033508;28;20122;-72
2022/02/09 01:56:30;;;;;;;30.13;11.85;;;;;;;-0.08;76.31;99170.19;5032363;28;20112;-72
2022/02/09 01:58:56;;;;;;;26.58;11.35;;;;;;;-0.08;76.61;99175.56;5031873;28;20058;-72
2022/02/09 02:01:22;;;;;;;30.08;12.50;;;;;;;-0.10;77.33;99180.31;5031712;28;20056;-71
2022/02/09 02:03:48;;;;;;;33.72;12.15;;;;;;;-0.16;77.60;99178.41;5030526;28;20123;-71
2022/02/09 02:06:15;;;;;;;24.73;11.02;;;;;;;-0.18;77.74;99175.09;5031777;28;20541;-72
2022/02/09 02:08:41;;;;;;;25.23;10.75;;;;;;;-0.15;77.69;99172.00;5031514;28;20124;-72
2022/02/09 02:16:39;;;;;;;25.02;10.55;;;;;;;-0.07;78.18;99184.47;5031971;28;20065;-71
2022/02/09 02:19:15;;;;;;;23.58;9.93;;;;;;;0.02;77.38;99185.97;5031423;28;20037;-71
2022/02/09 02:25:22;;;;;;;25.00;10.30;;;;;;;-0.14;78.46;99195.19;5031568;28;19913;-71
2022/02/09 02:41:05;;;;;;;24.95;11.10;;;;;;;-0.23;79.92;99169.47;5031465;28;20029;-72
2022/02/09 02:57:09;;;;;;;23.50;10.48;;;;;;;-0.16;79.61;99162.25;5012714;28;20459;-71
2022/02/09 02:59:44;;;;;;;22.60;10.02;;;;;;;-0.10;79.17;99177.63;5017011;28;20380;-72
2022/02/09 03:13:01;;;;;;;32.00;13.90;;;;;;;-0.27;80.01;99186.19;5013081;28;20077;-72
2022/02/09 03:18:52;;;;;;;28.23;12.10;;;;;;;-0.29;80.59;99178.31;5010521;28;20022;-71
2022/02/09 03:23:38;;;;;;;26.05;11.85;;;;;;;-0.40;81.71;99188.75;5010550;28;20446;-71
2022/02/09 03:55:19;;;;;;;32.20;11.77;;;;;;;-0.60;83.23;99202.06;5029787;28;20043;-71
2022/02/09 03:57:46;;;;;;;32.45;13.73;;;;;;;-0.73;84.61;99208.13;5029983;28;20124;-72
2022/02/09 04:00:17;;;;;;;32.15;13.05;;;;;;;-0.69;84.10;99201.34;5030072;28;20124;-72
2022/02/09 04:02:47;;;;;;;40.95;15.80;;;;;;;-0.76;84.02;99187.03;5029795;28;20537;-72
2022/02/09 04:05:14;;;;;;;36.67;14.27;;;;;;;-0.91;85.57;99196.19;5030002;28;20223;-72
2022/02/09 04:07:40;;;;;;;33.88;14.95;;;;;;;-0.92;86.34;99203.41;5029881;28;20034;-72
2022/02/09 04:10:08;;;;;;;31.73;12.50;;;;;;;-0.80;86.06;99203.72;5028538;28;20040;-72
2022/02/09 04:12:56;;;;;;;33.00;13.52;;;;;;;-0.81;85.79;99215.47;5031134;28;20029;-72
2022/02/09 04:16:10;;;;;;;32.20;14.20;;;;;;;-0.72;85.32;99204.41;5033427;28;20035;-72
2022/02/09 04:39:52;;;;;;;21.33;9.25;;;;;;;-0.99;87.26;99185.53;5033170;28;20064;-72
2022/02/09 04:42:39;;;;;;;22.13;9.75;;;;;;;-0.97;87.00;99184.31;5032907;28;20033;-72
2022/02/09 04:50:40;;;;;;;31.35;12.85;;;;;;;-1.01;86.02;99190.28;5033290;28;20034;-72
2022/02/09 04:56:02;;;;;;;31.30;11.52;;;;;;;-0.86;90.63;99196.41;5034229;28;20025;-72
2022/02/09 04:58:41;;;;;;;24.75;10.85;;;;;;;-0.85;85.92;99192.72;5033254;28;20075;-72
2022/02/09 05:01:30;;;;;;;26.92;10.85;;;;;;;-0.75;88.36;99187.88;5032885;28;20042;-72
2022/02/09 05:04:25;;;;;;;28.67;11.23;;;;;;;-0.69;87.06;99198.66;5032849;28;20482;-72
2022/02/09 05:28:19;;;;;;;26.08;11.15;;;;;;;-0.87;86.23;99210.84;5032835;28;20434;-72
2022/02/09 05:30:51;;;;;;;26.92;12.35;;;;;;;-0.92;87.09;99219.50;5031233;28;20372;-72
2022/02/09 05:33:17;;;;;;;27.65;12.65;;;;;;;-0.92;87.04;99213.31;5032524;28;20029;-72
2022/02/09 05:35:43;;;;;;;27.48;12.20;;;;;;;-0.97;87.59;99221.91;5032522;28;20128;-73
2022/02/09 05:38:10;;;;;;;27.08;12.65;;;;;;;-1.02;88.36;99226.19;5028374;28;20038;-72
2022/02/09 05:40:36;;;;;;;28.73;10.93;;;;;;;-1.07;89.04;99226.78;5020653;28;20036;-72
2022/02/09 05:43:01;;;;;;;39.65;10.95;;;;;;;-1.00;88.94;99222.28;5010835;28;20112;-71
2022/02/09 05:45:39;;;;;;;29.08;11.77;;;;;;;-1.11;89.16;99226.31;5029909;28;20056;-72
2022/02/09 05:53:22;;;;;;;28.60;11.23;;;;;;;-1.09;90.17;99224.28;5025510;28;20029;-73
2022/02/09 05:56:07;;;;;;;27.27;12.40;;;;;;;-1.17;90.50;99226.25;5019516;28;20084;-73
2022/02/09 05:58:45;;;;;;;28.20;11.85;;;;;;;-1.05;90.09;99237.31;5031597;28;20057;-73
2022/02/09 06:01:11;;;;;;;31.35;11.32;;;;;;;-1.12;90.05;99234.56;5031704;28;20175;-73
2022/02/09 06:03:36;;;;;;;37.25;12.50;;;;;;;-1.13;90.05;99228.34;5031622;28;20121;-73
2022/02/09 06:06:03;;;;;;;31.13;12.48;;;;;;;-1.21;90.86;99236.53;5030485;28;20778;-71
2022/02/09 06:08:29;;;;;;;33.17;12.68;;;;;;;-1.32;91.65;99234.34;5031498;28;20022;-72
2022/02/09 06:14:15;;;;;;;33.00;11.75;;;;;;;-1.04;90.73;99247.88;4998401;28;20043;-73
2022/02/09 06:21:57;;;;;;;27.42;12.50;;;;;;;-0.87;90.11;99249.28;5032725;28;20048;-74
2022/02/09 06:24:23;;;;;;;29.90;12.05;;;;;;;-0.92;89.73;99246.34;5032604;28;20021;-74
2022/02/09 06:26:48;;;;;;;28.23;13.32;;;;;;;-0.86;89.56;99244.75;5031127;28;20021;-74
2022/02/09 06:29:15;;;;;;;35.80;11.90;;;;;;;-0.71;90.40;99245.53;5031385;28;20025;-74
2022/02/09 06:31:43;;;;;;;29.40;12.40;;;;;;;-0.63;91.95;99248.91;5046465;28;20038;-71
2022/02/09 06:34:11;;;;;;;39.38;14.07;;;;;;;-0.60;89.76;99240.50;5013337;28;20036;-73
2022/02/09 06:36:40;;;;;;;46.10;12.77;;;;;;;-0.48;88.04;99240.81;5011416;28;20034;-72
2022/02/09 06:39:08;;;;;;;30.23;12.52;;;;;;;-0.58;88.37;99241.13;5029931;28;20033;-73
2022/02/09 06:41:34;;;;;;;32.42;12.23;;;;;;;-0.58;88.15;99242.97;5031001;28;20528;-73
2022/02/09 06:44:00;;;;;;;28.98;11.60;;;;;;;-0.38;87.18;99248.53;5030859;28;20071;-71
2022/02/09 06:46:26;;;;;;;34.67;13.20;;;;;;;-0.26;85.90;99246.97;5030846;28;20025;-72
2022/02/09 06:48:52;;;;;;;29.17;14.23;;;;;;;-0.06;84.55;99245.25;5030838;28;20025;-71
2022/02/09 06:51:21;;;;;;;27.98;12.55;;;;;;;0.28;83.03;99239.91;5031052;28;20006;-72
2022/02/09 06:54:01;;;;;;;30.80;11.57;;;;;;;0.49;80.44;99231.78;5030614;28;20040;-72
2022/02/09 06:56:42;;;;;;;32.63;12.38;;;;;;;1.43;76.28;99231.88;5011215;28;20026;-72
2022/02/09 07:01:36;;;;;;;29.80;12.23;;;;;;;1.56;73.19;99232.72;5010915;28;20034;-73
2022/02/09 07:04:02;;;;;;;28.95;12.63;;;;;;;1.28;74.27;99245.53;5012116;28;20537;-73
2022/02/09 07:06:27;;;;;;;31.00;13.68;;;;;;;1.24;74.73;99235.34;5013609;28;20081;-73
2022/02/09 07:08:53;;;;;;;24.35;12.20;;;;;;;1.40;74.93;99232.28;5026652;28;20029;-72
2022/02/09 07:11:18;;;;;;;35.85;13.82;;;;;;;1.83;73.44;99225.44;5030469;28;20621;-73
2022/02/09 07:13:43;;;;;;;27.35;10.95;;;;;;;2.87;69.85;99231.66;5012555;28;20030;-73
2022/02/09 07:16:12;;;;;;;24.40;11.93;;;;;;;3.53;66.06;99229.41;5009505;28;20558;-73
2022/02/09 07:18:38;;;;;;;25.77;10.93;;;;;;;3.37;65.79;99234.50;5009960;28;20025;-73
2022/02/09 07:21:10;;;;;;;36.97;13.35;;;;;;;3.28;65.41;99231.25;5011065;28;20565;-73
2022/02/09 07:23:48;;;;;;;27.17;12.95;;;;;;;3.52;64.84;99238.56;5011038;28;20034;-76
2022/02/09 07:28:46;;;;;;;34.60;12.18;;;;;;;3.61;62.96;99237.25;5010612;28;20065;-74
2022/02/09 07:31:13;;;;;;;32.78;13.65;;;;;;;4.16;61.85;99229.31;5010598;28;20549;-74
2022/02/09 07:33:41;;;;;;;28.38;14.13;;;;;;;3.92;61.10;99228.25;5010510;28;20029;-75
2022/02/09 07:36:08;;;;;;;36.70;13.43;;;;;;;4.01;62.28;99239.66;5010734;28;20025;-74
2022/02/09 07:38:34;;;;;;;32.75;13.45;;;;;;;5.24;58.13;99233.88;5009384;28;20076;-74
2022/02/09 07:41:01;;;;;;;34.42;13.27;;;;;;;6.44;53.32;99238.06;5010934;28;20037;-74
2022/02/09 07:49:00;;;;;;;26.00;13.43;;;;;;;9.79;42.79;99240.59;5014851;28;20092;-73
2022/02/09 07:51:53;;;;;;;33.58;14.20;;;;;;;10.67;39.89;99244.63;5015325;28;20026;-74
2022/02/09 07:54:21;;;;;;;28.13;14.00;;;;;;;10.97;38.49;99243.94;5013620;28;20475;-74
2022/02/09 07:56:47;;;;;;;28.90;14.13;;;;;;;11.70;37.09;99259.34;5015295;28;20037;-75
2022/02/09 07:59:15;;;;;;;32.75;13.90;;;;;;;12.28;35.54;99258.03;5015737;28;20049;-74
2022/02/09 08:01:41;;;;;;;27.67;14.10;;;;;;;12.32;35.16;99253.66;5014675;28;20455;-74
2022/02/09 08:04:07;;;;;;;22.90;12.75;;;;;;;11.71;36.27;99250.03;5014744;28;20487;-74
2022/02/09 08:06:33;;;;;;;30.13;15.32;;;;;;;12.64;34.80;99243.19;5014385;28;20026;-73
2022/02/09 08:09:05;;;;;;;25.17;13.55;;;;;;;14.07;32.33;99250.56;5014539;28;20030;-74
2022/02/09 08:11:59;;;;;;;27.52;13.85;;;;;;;14.00;31.75;99255.59;5028109;28;20034;-75
2022/02/09 08:33:34;;;;;;;29.80;14.65;;;;;;;13.21;33.54;99226.31;5034027;28;20382;-73
2022/02/09 08:35:54;;;;;;;25.45;13.50;;;;;;;14.16;31.34;99220.53;5034427;28;20115;-73
2022/02/09 08:38:19;;;;;;;25.70;13.65;;;;;;;13.56;32.28;99217.09;5033813;28;20689;-73
2022/02/09 08:40:46;;;;;;;25.10;13.48;;;;;;;13.92;31.85;99207.50;5033595;28;20087;-73
2022/02/09 08:43:12;;;;;;;29.77;14.07;;;;;;;15.16;30.42;99215.16;5033955;28;20052;-72
2022/02/09 08:45:39;;;;;;;20.73;11.38;;;;;;;14.98;29.25;99222.22;5033931;28;20474;-73
2022/02/09 08:48:05;;;;;;;25.27;11.15;;;;;;;14.96;29.25;99214.28;5033302;28;20060;-73
2022/02/09 08:50:31;;;;;;;23.77;12.98;;;;;;;14.81;29.03;99211.69;5033755;28;20037;-73
2022/02/09 08:52:57;;;;;;;29.73;13.70;;;;;;;14.26;30.61;99213.00;5033058;28;20112;-73
2022/02/09 08:55:23;;;;;;;22.83;12.27;;;;;;;14.56;30.07;99209.19;5036431;28;20033;-73
2022/02/09 08:57:49;;;;;;;24.35;13.68;;;;;;;14.23;30.83;99207.25;5033458;28;20073;-73
2022/02/09 09:00:24;;;;;;;27.30;13.80;;;;;;;13.77;31.83;99215.03;5032118;28;20040;-72
2022/02/09 09:03:04;;;;;;;25.25;13.63;;;;;;;13.97;31.64;99203.06;5033259;28;20036;-72
2022/02/09 09:05:40;;;;;;;28.67;13.27;;;;;;;14.58;30.47;99208.88;5033044;28;20018;-73
2022/02/09 09:08:19;;;;;;;30.38;13.75;;;;;;;15.18;29.21;99205.47;5029860;28;20029;-74
2022/02/09 09:11:01;;;;;;;38.10;13.25;;;;;;;14.05;31.04;99202.44;5021350;28;20029;-74
2022/02/09 10:02:48;;;;;;;28.48;13.40;;;;;;;16.47;25.96;99182.84;5030667;28;20055;-73
2022/02/09 10:34:07;;;;;;;29.55;13.32;;;;;;;16.46;27.37;99137.00;5021939;28;20026;-74
2022/02/09 10:36:52;;;;;;;20.40;11.23;;;;;;;16.08;26.53;99131.59;5027497;28;20174;-74
2022/02/09 10:39:45;;;;;;;;;;;;;;;16.19;26.80;99120.38;5027276;28;20044;-73
2022/02/09 10:42:19;;;;;;;50.50;27.77;;;;;;;16.30;26.73;99113.56;5026336;28;19948;-76
2022/02/09 10:45:03;;;;;;;22.52;11.25;;;;;;;16.43;26.47;99115.53;5020947;28;20045;-73
2022/02/09 10:47:31;;;;;;;22.00;10.23;;;;;;;16.96;25.28;99113.94;5023877;28;20025;-74
2022/02/09 10:50:10;;;;;;;21.27;9.88;;;;;;;18.14;24.15;99111.72;5028608;28;20025;-74
2022/02/09 10:52:41;;;;;;;17.67;9.60;;;;;;;17.35;23.99;99104.25;5031655;28;20042;-74
2022/02/09 10:55:29;;;;;;;23.52;10.45;;;;;;;17.11;24.38;99101.72;5031001;28;20496;-74
2022/02/09 10:57:55;;;;;;;17.15;9.07;;;;;;;16.94;24.06;99099.59;5031111;28;20049;-74
2022/02/09 11:00:22;;;;;;;27.70;10.27;;;;;;;16.11;25.40;99090.69;5031372;28;20036;-73
2022/02/09 11:02:50;;;;;;;24.02;10.40;;;;;;;16.03;25.04;99086.72;5031085;28;20057;-74
2022/02/09 11:05:19;;;;;;;22.95;11.00;;;;;;;16.81;25.52;99078.31;5031218;28;20043;-74
2022/02/09 11:07:45;;;;;;;14.07;9.05;;;;;;;17.39;24.19;99077.56;5013578;28;20100;-74
2022/02/09 11:10:10;;;;;;;20.77;10.05;;;;;;;17.52;23.39;99073.94;5011408;28;20022;-74
2022/02/09 11:12:38;;;;;;;17.13;9.23;;;;;;;17.24;24.21;99072.41;5010142;28;20036;-75
2022/02/09 11:15:07;;;;;;;21.55;9.88;;;;;;;16.66;24.37;99067.59;5011306;28;20056;-75
2022/02/09 11:17:33;;;;;;;24.80;8.65;;;;;;;16.52;24.89;99063.97;5009961;28;20029;-74
2022/02/09 11:19:58;;;;;;;19.08;9.77;;;;;;;16.98;24.51;99072.97;5011297;28;20034;-74
2022/02/09 11:22:28;;;;;;;24.38;10.75;;;;;;;15.99;24.85;99053.38;5011286;28;20053;-74
2022/02/09 11:25:09;;;;;;;14.60;8.75;;;;;;;16.13;24.78;99058.13;5021177;28;20030;-74
2022/02/09 11:27:38;;;;;;;45.10;20.55;;;;;;;17.13;24.08;99047.72;5020975;28;20061;-75
2022/02/09 11:30:14;;;;;;;29.17;14.68;;;;;;;16.87;24.16;99056.91;5022985;28;20057;-74
2022/02/09 11:32:58;;;;;;;27.02;11.85;;;;;;;17.20;23.81;99047.31;5025610;28;20052;-74
2022/02/09 11:35:31;;;;;;;19.35;10.18;;;;;;;17.17;23.99;99047.13;5011816;28;20038;-73
2022/02/09 11:46:20;;;;;;;17.63;8.27;;;;;;;16.45;24.76;99033.16;5030887;28;20037;-74
2022/02/09 12:11:30;;;;;;;17.35;9.43;;;;;;;12.65;29.59;98977.75;5010705;28;20164;-74
2022/02/09 12:16:45;;;;;;;17.35;8.75;;;;;;;12.13;30.09;98972.78;5023874;28;20025;-73
2022/02/09 12:19:24;;;;;;;13.85;7.30;;;;;;;12.40;30.05;98964.16;5015196;28;20038;-72
2022/02/09 12:21:55;;;;;;;15.07;7.53;;;;;;;12.43;29.61;98964.44;5023411;28;20037;-72
2022/02/09 12:24:30;;;;;;;21.58;8.65;;;;;;;12.01;30.07;98964.06;5022739;28;20078;-73
2022/02/09 12:26:59;;;;;;;18.08;7.88;;;;;;;12.49;29.72;98962.47;5024376;28;20033;-75
2022/02/09 12:29:40;;;;;;;16.95;7.95;;;;;;;12.29;29.90;98944.19;5020332;28;20116;-72
2022/02/09 12:32:15;;;;;;;19.40;7.50;;;;;;;12.47;29.82;98949.03;5021287;28;20087;-73
2022/02/09 12:35:01;;;;;;;17.73;7.80;;;;;;;12.44;30.20;98935.88;5022067;28;20022;-72
2022/02/09 12:37:29;;;;;;;21.98;7.07;;;;;;;12.36;29.93;98917.28;5016801;28;20120;-72
2022/02/09 12:39:58;;;;;;;12.50;7.13;;;;;;;12.30;30.02;98915.66;5027694;28;20087;-72
2022/02/09 12:42:29;;;;;;;16.50;8.50;;;;;;;12.33;30.17;98920.56;5027535;28;20030;-72
2022/02/09 12:44:59;;;;;;;24.70;7.30;;;;;;;12.51;29.79;98919.09;5032054;28;20053;-72
2022/02/09 12:47:41;;;;;;;20.08;7.30;;;;;;;12.60;29.63;98918.22;5033183;28;20108;-73
2022/02/09 12:50:14;;;;;;;24.83;8.13;;;;;;;12.70;29.53;98915.41;5033263;28;20025;-72
2022/02/09 12:52:42;;;;;;;20.88;7.82;;;;;;;12.74;29.14;98901.94;5033827;28;20045;-72
2022/02/09 12:55:12;;;;;;;14.55;7.38;;;;;;;12.82;29.08;98893.88;5031980;28;20033;-72
2022/02/09 12:57:52;;;;;;;14.52;6.93;;;;;;;12.96;29.17;98885.00;5031633;28;20394;-72
2022/02/09 13:00:24;;;;;;;18.33;7.10;;;;;;;13.09;29.27;98884.38;5032867;28;20041;-73
2022/02/09 13:02:50;;;;;;;14.52;6.63;;;;;;;12.92;29.01;98878.44;5031981;28;20052;-73
2022/02/09 13:05:16;;;;;;;13.90;6.88;;;;;;;12.95;28.98;98880.59;5033366;28;20053;-73
2022/02/09 13:07:50;;;;;;;22.52;6.97;;;;;;;13.09;29.20;98873.38;5031325;28;20049;-74
2022/02/09 13:10:25;;;;;;;17.35;7.10;;;;;;;13.08;28.84;98882.69;5027371;28;20399;-72
2022/02/09 13:12:52;;;;;;;19.23;7.40;;;;;;;13.02;28.87;98889.34;5023821;28;20040;-76
2022/02/09 13:15:23;;;;;;;16.33;7.22;;;;;;;13.01;28.63;98884.94;5025075;28;20065;-73
2022/02/09 13:26:02;;;;;;;12.07;6.37;;;;;;;13.09;28.80;98865.16;5021740;28;20475;-75
2022/02/09 13:53:11;;;;;;;19.27;5.93;;;;;;;13.40;28.70;98845.31;5023141;28;20479;-75
2022/02/09 14:06:55;;;;;;;13.77;6.00;;;;;;;13.96;28.24;98828.13;5044150;28;20013;-73
2022/02/09 14:11:46;;;;;;;9.50;5.47;;;;;;;13.98;28.81;98825.06;5021288;28;20123;-76
2022/02/09 14:57:40;;;;;;;7.93;3.97;;;;;;;14.00;28.86;98831.09;5030121;28;20067;-78
2022/02/09 15:02:46;;;;;;;11.75;4.47;;;;;;;13.90;28.69;98838.38;5029196;28;20037;-75
2022/02/09 15:10:34;;;;;;;13.80;5.07;;;;;;;13.77;29.47;98839.09;5034321;28;20025;-75
2022/02/09 15:13:19;;;;;;;11.40;4.75;;;;;;;13.62;29.29;98828.28;5037176;28;20030;-74
2022/02/09 15:23:44;;;;;;;7.10;3.92;;;;;;;13.32;30.51;98836.88;5049278;28;20084;-75
2022/02/09 15:26:10;;;;;;;8.43;4.65;;;;;;;13.23;30.15;98839.44;5040586;28;20025;-75
2022/02/09 15:28:36;;;;;;;14.25;5.03;;;;;;;13.19;30.39;98840.28;5030131;28;20069;-72
2022/02/09 15:31:08;;;;;;;17.17;5.25;;;;;;;13.09;30.33;98844.00;5042326;28;20784;-72
2022/02/09 15:33:45;;;;;;;10.80;5.43;;;;;;;13.03;30.57;98838.81;5028462;28;20113;-72
2022/02/09 15:36:14;;;;;;;11.45;5.70;;;;;;;12.93;30.78;98836.16;5030754;28;20033;-73
2022/02/09 15:38:46;;;;;;;11.98;4.88;;;;;;;12.86;30.83;98845.53;5033902;28;20036;-72
2022/02/09 15:41:26;;;;;;;8.43;5.20;;;;;;;12.78;30.87;98834.38;5029994;28;20041;-71
2022/02/09 16:05:42;;;;;;;14.23;5.55;;;;;;;12.00;32.15;98847.22;5026167;28;20067;-72
2022/02/09 16:23:52;;;;;;;13.77;6.65;;;;;;;11.39;33.36;98850.22;5053855;28;20052;-71
2022/02/09 16:45:44;;;;;;;13.93;6.38;;;;;;;10.85;34.07;98860.16;5027217;28;20118;-71
2022/02/09 16:48:13;;;;;;;12.70;6.75;;;;;;;10.80;34.58;98860.16;5030354;28;20034;-71
2022/02/09 16:50:48;;;;;;;14.27;6.60;;;;;;;10.61;34.85;98852.53;5030637;28;20048;-72
2022/02/09 16:56:28;;;;;;;13.52;6.53;;;;;;;10.53;35.02;98861.25;5041115;28;20029;-72
2022/02/09 17:20:36;;;;;;;14.63;7.10;;;;;;;10.36;36.46;98888.06;5033647;28;20091;-72
2022/02/09 17:23:02;;;;;;;10.82;7.10;;;;;;;10.30;36.83;98883.66;5036338;28;20033;-72
2022/02/09 17:25:28;;;;;;;15.43;8.02;;;;;;;10.23;36.93;98882.28;5029377;28;20044;-72
2022/02/09 17:27:53;;;;;;;17.25;7.93;;;;;;;10.21;37.10;98888.03;5024484;28;20030;-71
2022/02/09 17:33:17;;;;;;;14.10;7.50;;;;;;;10.30;36.98;98888.31;5034823;28;20442;-71
2022/02/09 17:36:00;;;;;;;38.42;20.75;;;;;;;10.18;37.26;98892.09;5028471;28;20112;-72
2022/02/09 17:57:35;;;;;;;13.85;8.88;;;;;;;9.15;39.95;98893.78;5039435;28;20072;-72
2022/02/09 18:00:14;;;;;;;18.75;9.40;;;;;;;9.03;40.24;98905.97;5035756;28;20049;-72
2022/02/09 18:02:41;;;;;;;15.02;9.27;;;;;;;8.94;40.44;98899.34;5036628;28;20172;-74
2022/02/09 18:05:18;;;;;;;15.43;8.52;;;;;;;8.83;40.78;98906.66;5036224;28;20029;-71
2022/02/09 18:07:45;;;;;;;17.65;9.82;;;;;;;8.70;41.08;98907.09;5033454;28;20112;-71
2022/02/09 18:10:21;;;;;;;17.55;9.32;;;;;;;8.55;41.56;98906.94;5034411;28;20029;-72
2022/02/09 18:31:41;;;;;;;24.63;12.93;;;;;;;7.95;43.41;98898.94;5022783;28;20363;-72
2022/02/09 18:34:33;;;;;;;18.90;11.90;;;;;;;7.76;44.46;98900.34;5027425;28;20037;-74
2022/02/09 18:42:52;;;;;;;21.17;11.65;;;;;;;7.61;44.37;98898.25;5022530;28;20048;-72
2022/02/09 19:04:37;;;;;;;20.02;12.10;;;;;;;7.35;45.33;98915.31;5019115;28;20398;-71
2022/02/09 19:31:13;;;;;;;19.83;11.05;;;;;;;6.92;47.52;98919.56;5007672;28;20061;-71
2022/02/09 19:46:50;;;;;;;19.70;10.93;;;;;;;6.60;48.70;98923.09;5030865;28;20108;-72
2022/02/09 19:52:07;;;;;;;18.45;10.88;;;;;;;6.44;49.40;98897.56;5035195;28;20040;-71
2022/02/09 19:57:05;;;;;;;20.13;12.20;;;;;;;6.47;49.99;98914.19;5034438;28;20018;-72
2022/02/09 19:59:34;;;;;;;19.30;11.45;;;;;;;6.63;51.64;98917.16;5034690;28;20151;-72
2022/02/09 20:01:59;;;;;;;22.05;11.90;;;;;;;6.95;52.18;98915.53;5029729;28;20082;-72
2022/02/09 20:04:25;;;;;;;21.63;11.77;;;;;;;6.83;49.38;98904.72;5029974;28;20048;-73
2022/02/09 20:06:51;;;;;;;19.27;11.40;;;;;;;6.77;49.64;98918.47;5034259;28;20463;-74
2022/02/09 20:09:18;;;;;;;18.33;10.82;;;;;;;6.67;49.47;98919.13;5033803;28;20033;-73
2022/02/09 20:11:44;;;;;;;22.52;11.23;;;;;;;6.53;51.03;98919.72;5036390;28;20029;-77
2022/02/09 20:14:12;;;;;;;21.02;11.30;;;;;;;6.44;51.03;98914.69;5036031;28;20025;-76
2022/02/09 20:16:39;;;;;;;19.55;10.55;;;;;;;6.48;50.09;98917.75;5038664;28;20028;-79
2022/02/09 20:19:04;;;;;;;18.92;10.52;;;;;;;6.39;49.79;98917.28;5033747;28;20578;-73
2022/02/09 20:21:31;;;;;;;19.85;11.07;;;;;;;6.22;51.23;98927.31;5048001;28;20025;-73
2022/02/09 20:23:56;;;;;;;18.35;10.38;;;;;;;6.23;50.14;98926.25;5047406;28;20095;-72
2022/02/09 20:26:24;;;;;;;16.85;10.32;;;;;;;6.12;50.65;98927.13;5049134;28;20417;-72
2022/02/09 20:29:04;;;;;;;20.10;9.82;;;;;;;6.12;52.01;98926.28;5039903;28;20036;-71
2022/02/09 20:31:35;;;;;;;20.58;9.93;;;;;;;6.13;52.55;98917.91;5049063;28;20135;-72
2022/02/09 20:34:17;;;;;;;16.23;10.20;;;;;;;6.24;52.97;98925.19;5042252;28;20025;-71
2022/02/09 20:36:43;;;;;;;18.17;9.88;;;;;;;6.09;50.92;98919.47;5032140;28;20033;-71
2022/02/09 20:39:12;;;;;;;17.70;10.55;;;;;;;6.04;51.18;98915.81;5033078;28;20057;-72
2022/02/09 20:41:38;;;;;;;22.88;10.85;;;;;;;5.93;51.67;98909.38;5027553;28;20026;-73
2022/02/09 20:44:29;;;;;;;20.50;10.10;;;;;;;5.99;52.33;98924.69;5033906;28;20051;-71
2022/02/09 20:46:55;;;;;;;19.83;11.10;;;;;;;5.94;51.52;98913.75;5032796;28;20030;-72
2022/02/09 20:49:21;;;;;;;65.43;31.85;;;;;;;5.83;51.92;98917.28;5034142;28;20030;-73
2022/02/09 20:51:46;;;;;;;21.08;10.18;;;;;;;5.90;52.96;98913.41;5045071;28;20029;-71
2022/02/09 20:54:12;;;;;;;19.90;10.25;;;;;;;5.86;52.84;98911.38;5023684;28;20471;-71
2022/02/09 20:56:37;;;;;;;22.10;11.23;;;;;;;5.65;52.25;98909.31;5042432;28;20025;-73
2022/02/09 20:59:06;;;;;;;20.92;9.77;;;;;;;5.64;53.19;98907.69;5039926;28;20061;-72
2022/02/09 21:01:39;;;;;;;25.80;10.95;;;;;;;5.56;53.13;98910.75;5026940;28;20098;-71
2022/02/09 21:04:08;;;;;;;20.48;10.93;;;;;;;5.57;52.72;98913.25;5026399;28;20025;-71
2022/02/09 21:09:08;;;;;;;17.00;11.07;;;;;;;5.34;52.61;98907.84;5023710;28;20112;-71
2022/02/09 21:14:16;;;;;;;30.80;12.98;;;;;;;5.09;54.61;98908.09;5030532;28;20021;-71
2022/02/09 21:25:13;;;;;;;43.63;19.58;;;;;;;4.04;60.34;98898.16;5042047;28;20032;-72
2022/02/09 21:42:09;;;;;;;47.65;19.75;;;;;;;3.00;66.56;98891.13;5043183;28;20037;-72
2022/02/09 21:57:52;;;;;;;42.28;19.85;;;;;;;2.64;69.65;98894.59;5047198;28;20024;-72
2022/02/09 22:26:53;;;;;;;39.88;17.38;;;;;;;2.32;73.08;98889.47;5036947;28;20025;-73
2022/02/09 22:45:53;;;;;;;42.63;19.02;;;;;;;1.85;76.16;98861.97;5033885;28;20040;-73
2022/02/09 22:50:56;;;;;;;41.80;18.25;;;;;;;1.67;77.67;98869.97;5029812;28;20057;-72
2022/02/09 22:56:07;;;;;;;40.85;16.55;;;;;;;1.62;78.59;98872.47;5043982;28;20068;-72
2022/02/09 22:58:33;;;;;;;40.65;17.88;;;;;;;1.63;78.48;98869.56;5030702;28;20053;-72
2022/02/09 23:01:15;;;;;;;41.80;18.70;;;;;;;1.62;78.34;98867.09;5030675;28;20095;-73
2022/02/09 23:04:25;;;;;;;36.88;17.17;;;;;;;1.60;78.57;98863.75;5030118;28;20072;-72
2022/02/09 23:17:30;;;;;;;35.50;17.55;;;;;;;1.56;79.53;98857.19;5041263;28;20060;-72
2022/02/09 23:57:50;;;;;;;38.53;17.90;;;;;;;1.03;83.38;98835.03;5030254;28;20037;-72
